createdAt,value
2022-10-17T00:00:35.010Z,16.44
2022-10-17T00:03:01.969Z,16.38
2022-10-17T00:05:28.639Z,16.32
2022-10-17T00:07:55.400Z,16.40
2022-10-17T00:10:22.875Z,16.49
2022-10-17T00:12:51.611Z,16.47
2022-10-17T00:15:20.227Z,16.48
2022-10-17T00:17:46.691Z,16.47
2022-10-17T00:20:13.683Z,16.38
2022-10-17T00:22:40.213Z,16.42
2022-10-17T00:25:07.123Z,16.37
2022-10-17T00:27:37.496Z,16.37
2022-10-17T00:30:05.770Z,16.37
2022-10-17T00:32:32.222Z,16.40
2022-10-17T00:34:59.173Z,16.32
2022-10-17T00:37:25.543Z,16.35
2022-10-17T00:39:55.379Z,16.32
2022-10-17T00:42:22.135Z,16.40
2022-10-17T00:44:48.424Z,16.40
2022-10-17T00:47:19.228Z,16.44
2022-10-17T00:49:45.886Z,16.40
2022-10-17T00:52:17.942Z,16.40
2022-10-17T00:54:48.240Z,16.49
2022-10-17T00:57:16.692Z,16.47
2022-10-17T00:59:46.826Z,16.48
2022-10-17T01:02:15.860Z,16.52
2022-10-17T01:04:45.076Z,16.47
2022-10-17T01:07:11.525Z,16.52
2022-10-17T01:09:39.274Z,16.49
2022-10-17T01:12:17.868Z,16.51
2022-10-17T01:14:57.981Z,16.48
2022-10-17T01:17:38.209Z,16.38
2022-10-17T01:20:16.734Z,16.40
2022-10-17T01:23:02.223Z,16.37
2022-10-17T01:26:06.446Z,16.30
2022-10-17T01:28:55.022Z,16.28
2022-10-17T01:31:59.756Z,16.28
2022-10-17T01:34:42.995Z,16.22
2022-10-17T01:37:25.180Z,16.28
2022-10-17T01:40:06.986Z,16.30
2022-10-17T01:42:42.435Z,16.32
2022-10-17T01:45:22.723Z,16.28
2022-10-17T01:47:52.204Z,16.44
2022-10-17T01:50:23.927Z,16.44
2022-10-17T01:52:59.948Z,16.31
2022-10-17T01:55:35.592Z,16.28
2022-10-17T01:58:16.598Z,16.27
2022-10-17T02:00:45.399Z,16.30
2022-10-17T02:03:16.485Z,16.30
2022-10-17T02:05:44.307Z,16.30
2022-10-17T02:08:11.201Z,16.32
2022-10-17T02:10:49.594Z,16.44
2022-10-17T02:13:31.532Z,16.42
2022-10-17T02:16:16.547Z,16.51
2022-10-17T02:19:01.869Z,16.48
2022-10-17T02:21:34.161Z,16.49
2022-10-17T02:24:12.514Z,16.51
2022-10-17T02:26:47.972Z,16.51
2022-10-17T02:29:21.927Z,16.61
2022-10-17T02:32:11.991Z,16.59
2022-10-17T02:34:49.173Z,16.72
2022-10-17T02:37:19.579Z,16.64
2022-10-17T02:39:48.071Z,16.69
2022-10-17T02:42:15.746Z,16.65
2022-10-17T02:44:45.047Z,16.72
2022-10-17T02:47:21.738Z,16.71
2022-10-17T02:49:51.816Z,16.64
2022-10-17T02:52:27.957Z,16.69
2022-10-17T02:55:01.005Z,16.82
2022-10-17T02:57:36.995Z,16.92
2022-10-17T03:00:07.619Z,16.82
2022-10-17T03:02:45.251Z,16.88
2022-10-17T03:05:15.083Z,16.92
2022-10-17T03:07:43.874Z,16.93
2022-10-17T03:10:10.349Z,16.99
2022-10-17T03:12:36.805Z,17.02
2022-10-17T03:15:04.029Z,17.04
2022-10-17T03:17:30.480Z,17.20
2022-10-17T03:19:56.880Z,17.17
2022-10-17T03:22:23.377Z,17.11
2022-10-17T03:24:50.464Z,17.19
2022-10-17T03:27:17.216Z,17.19
2022-10-17T03:29:43.652Z,17.16
2022-10-17T03:32:10.440Z,17.11
2022-10-17T03:34:36.827Z,17.16
2022-10-17T03:37:03.277Z,17.13
2022-10-17T03:39:29.904Z,17.19
2022-10-17T03:41:56.458Z,17.20
2022-10-17T03:44:22.945Z,17.23
2022-10-17T03:46:49.298Z,17.34
2022-10-17T03:49:15.661Z,17.34
2022-10-17T03:51:42.089Z,17.34
2022-10-17T03:54:08.524Z,17.31
2022-10-17T03:56:34.974Z,17.27
2022-10-17T03:59:01.416Z,17.26
2022-10-17T04:01:27.883Z,17.27
2022-10-17T04:03:56.790Z,17.26
2022-10-17T04:06:23.904Z,17.26
2022-10-17T04:08:50.381Z,17.21
2022-10-17T04:11:20.070Z,17.23
2022-10-17T04:13:47.079Z,17.21
2022-10-17T04:16:16.263Z,17.20
2022-10-17T04:18:43.175Z,17.31
2022-10-17T04:21:10.223Z,17.36
2022-10-17T04:23:36.689Z,17.23
2022-10-17T04:26:04.797Z,17.33
2022-10-17T04:28:32.173Z,17.33
2022-10-17T04:31:00.623Z,17.34
2022-10-17T04:33:27.575Z,17.34
2022-10-17T04:36:05.331Z,17.26
2022-10-17T04:38:32.321Z,17.36
2022-10-17T04:41:03.045Z,17.34
2022-10-17T04:43:34.397Z,17.29
2022-10-17T04:46:02.819Z,17.26
2022-10-17T04:48:30.081Z,17.21
2022-10-17T04:50:58.023Z,17.23
2022-10-17T04:53:24.994Z,17.20
2022-10-17T04:55:51.561Z,17.13
2022-10-17T04:58:19.255Z,17.13
2022-10-17T05:00:46.043Z,17.04
2022-10-17T05:03:12.912Z,17.04
2022-10-17T05:05:41.018Z,17.06
2022-10-17T05:08:09.869Z,17.00
2022-10-17T05:10:41.396Z,16.96
2022-10-17T05:13:08.774Z,16.98
2022-10-17T05:15:36.243Z,16.99
2022-10-17T05:18:04.284Z,16.98
2022-10-17T05:20:31.236Z,16.99
2022-10-17T05:23:00.476Z,16.95
2022-10-17T05:25:26.894Z,16.96
2022-10-17T05:27:53.795Z,16.95
2022-10-17T05:30:20.687Z,16.99
2022-10-17T05:32:47.065Z,16.99
2022-10-17T05:35:13.432Z,17.03
2022-10-17T05:37:39.907Z,16.96
2022-10-17T05:40:06.910Z,16.93
2022-10-17T05:42:33.603Z,16.98
2022-10-17T05:45:00.247Z,16.99
2022-10-17T05:47:28.415Z,16.96
2022-10-17T05:49:55.062Z,17.03
2022-10-17T05:52:21.441Z,17.07
2022-10-17T05:54:47.849Z,17.10
2022-10-17T05:57:15.553Z,17.04
2022-10-17T05:59:41.940Z,16.99
2022-10-17T06:02:10.898Z,17.03
2022-10-17T06:04:38.009Z,17.03
2022-10-17T06:07:06.365Z,17.03
2022-10-17T06:09:32.910Z,17.03
2022-10-17T06:11:59.292Z,17.00
2022-10-17T06:14:25.678Z,16.98
2022-10-17T06:16:52.076Z,17.00
2022-10-17T06:19:18.826Z,17.09
2022-10-17T06:21:45.160Z,17.14
2022-10-17T06:24:11.609Z,17.20
2022-10-17T06:26:38.019Z,17.20
2022-10-17T06:32:34.918Z,17.40
2022-10-17T06:35:01.347Z,17.53
2022-10-17T06:37:35.305Z,17.58
2022-10-17T06:40:04.219Z,17.48
2022-10-17T06:42:31.548Z,17.51
2022-10-17T06:44:57.921Z,17.53
2022-10-17T06:47:24.448Z,17.50
2022-10-17T06:49:50.867Z,17.57
2022-10-17T06:52:17.402Z,17.61
2022-10-17T06:54:44.377Z,17.72
2022-10-17T06:57:10.853Z,17.83
2022-10-17T06:59:37.203Z,17.94
2022-10-17T07:02:03.748Z,18.06
2022-10-17T07:04:30.169Z,18.06
2022-10-17T07:06:56.617Z,18.12
2022-10-17T07:09:24.165Z,18.33
2022-10-17T07:11:50.547Z,18.47
2022-10-17T07:14:17.010Z,18.39
2022-10-17T07:16:43.397Z,18.33
2022-10-17T07:19:09.878Z,18.25
2022-10-17T07:21:39.048Z,18.50
2022-10-17T07:24:07.417Z,18.50
2022-10-17T07:26:33.815Z,18.46
2022-10-17T07:29:00.214Z,18.56
2022-10-17T07:31:26.684Z,18.47
2022-10-17T07:33:53.090Z,18.60
2022-10-17T07:36:19.610Z,18.53
2022-10-17T07:38:46.017Z,18.58
2022-10-17T07:41:16.596Z,18.61
2022-10-17T07:43:47.120Z,18.94
2022-10-17T07:46:13.545Z,19.06
2022-10-17T07:48:40.163Z,19.25
2022-10-17T07:51:08.689Z,19.53
2022-10-17T07:53:37.340Z,19.74
2022-10-17T07:56:08.611Z,19.64
2022-10-17T07:58:36.467Z,19.77
2022-10-17T08:01:04.436Z,19.73
2022-10-17T08:03:30.837Z,19.73
2022-10-17T08:05:59.135Z,19.80
2022-10-17T08:08:25.918Z,19.95
2022-10-17T08:10:52.992Z,19.97
2022-10-17T08:13:19.647Z,20.05
2022-10-17T08:15:47.826Z,20.14
2022-10-17T08:18:18.218Z,19.97
2022-10-17T08:20:44.891Z,20.13
2022-10-17T08:23:11.502Z,20.13
2022-10-17T08:25:39.667Z,20.14
2022-10-17T08:30:34.259Z,20.28
2022-10-17T08:33:00.714Z,20.24
2022-10-17T08:35:27.301Z,20.00
2022-10-17T08:37:53.820Z,20.22
2022-10-17T08:40:29.064Z,20.22
2022-10-17T08:43:20.988Z,20.01
2022-10-17T08:46:03.275Z,20.31
2022-10-17T08:48:34.661Z,20.26
2022-10-17T08:51:21.090Z,19.94
2022-10-17T08:54:01.432Z,19.81
2022-10-17T08:56:55.322Z,19.78
2022-10-17T08:59:26.976Z,19.81
2022-10-17T09:02:02.772Z,19.90
2022-10-17T09:04:35.414Z,19.90
2022-10-17T09:07:05.775Z,20.26
2022-10-17T09:09:57.971Z,20.05
2022-10-17T09:12:31.242Z,20.49
2022-10-17T09:15:22.494Z,20.11
2022-10-17T09:17:58.106Z,19.94
2022-10-17T09:20:30.944Z,19.93
2022-10-17T09:23:00.404Z,19.93
2022-10-17T09:25:32.000Z,20.03
2022-10-17T09:28:10.475Z,19.88
2022-10-17T09:31:04.275Z,19.95
2022-10-17T09:33:53.250Z,19.91
2022-10-17T09:36:24.497Z,20.00
2022-10-17T09:38:56.512Z,20.01
2022-10-17T09:41:50.520Z,19.93
2022-10-17T09:44:23.498Z,19.97
2022-10-17T09:47:04.493Z,19.98
2022-10-17T09:49:42.779Z,19.91
2022-10-17T09:52:14.823Z,19.91
2022-10-17T09:54:48.006Z,19.91
2022-10-17T09:57:16.674Z,19.88
2022-10-17T09:59:46.939Z,19.94
2022-10-17T10:02:13.290Z,19.97
2022-10-17T10:05:06.045Z,19.95
2022-10-17T10:07:36.780Z,20.04
2022-10-17T10:10:06.162Z,20.05
2022-10-17T10:12:35.972Z,20.25
2022-10-17T10:15:22.601Z,20.21
2022-10-17T10:17:49.233Z,20.22
2022-10-17T10:20:36.707Z,20.26
2022-10-17T10:23:07.428Z,20.29
2022-10-17T10:25:35.425Z,20.42
2022-10-17T10:28:02.713Z,20.35
2022-10-17T10:30:34.858Z,20.42
2022-10-17T10:33:11.396Z,20.45
2022-10-17T10:35:38.043Z,20.46
2022-10-17T10:38:13.659Z,20.59
2022-10-17T10:40:54.536Z,20.61
2022-10-17T10:43:37.793Z,20.68
2022-10-17T10:46:16.023Z,20.66
2022-10-17T10:48:50.412Z,20.71
2022-10-17T10:51:23.621Z,20.80
2022-10-17T10:53:56.376Z,20.77
2022-10-17T10:56:38.225Z,20.84
2022-10-17T10:59:13.738Z,20.83
2022-10-17T11:01:56.258Z,20.79
2022-10-17T11:04:57.141Z,20.82
2022-10-17T11:07:46.185Z,20.82
2022-10-17T11:10:21.723Z,20.79
2022-10-17T11:13:09.309Z,20.79
2022-10-17T11:16:02.195Z,20.73
2022-10-17T11:18:33.528Z,20.72
2022-10-17T11:21:05.422Z,20.75
2022-10-17T11:23:40.057Z,20.75
2022-10-17T11:26:13.979Z,20.84
2022-10-17T11:28:40.455Z,20.87
2022-10-17T11:31:13.249Z,20.80
2022-10-17T11:33:49.584Z,20.80
2022-10-17T11:36:19.615Z,20.83
2022-10-17T11:38:52.658Z,20.83
2022-10-17T11:41:35.199Z,20.76
2022-10-17T11:44:15.663Z,20.82
2022-10-17T11:46:43.182Z,20.80
2022-10-17T11:49:20.136Z,20.96
2022-10-17T11:52:44.033Z,21.00
2022-10-17T11:55:31.791Z,21.03
2022-10-17T11:58:19.381Z,20.96
2022-10-17T12:01:15.372Z,20.92
2022-10-17T12:04:05.870Z,21.14
2022-10-17T12:07:15.642Z,21.02
2022-10-17T12:09:59.280Z,21.03
2022-10-17T12:12:29.294Z,21.06
2022-10-17T12:15:13.908Z,21.04
2022-10-17T12:17:45.978Z,21.02
2022-10-17T12:20:23.386Z,20.86
2022-10-17T12:22:52.040Z,20.86
2022-10-17T12:25:32.104Z,20.84
2022-10-17T12:28:17.393Z,20.83
2022-10-17T12:30:49.971Z,20.87
2022-10-17T12:33:22.600Z,20.94
2022-10-17T12:35:51.248Z,21.04
2022-10-17T12:38:17.580Z,21.02
2022-10-17T12:40:48.422Z,21.14
2022-10-17T12:43:15.387Z,21.06
2022-10-17T12:46:04.144Z,21.10
2022-10-17T12:48:33.502Z,20.94
2022-10-17T12:51:30.634Z,20.97
2022-10-17T12:53:59.240Z,20.94
2022-10-17T12:56:37.329Z,20.99
2022-10-17T12:59:24.702Z,20.94
2022-10-17T13:01:56.182Z,21.02
2022-10-17T13:04:23.400Z,21.03
2022-10-17T13:06:55.535Z,21.09
2022-10-17T13:09:29.364Z,21.03
2022-10-17T13:11:59.615Z,21.10
2022-10-17T13:14:28.233Z,21.06
2022-10-17T13:17:07.420Z,21.02
2022-10-17T13:19:46.225Z,21.07
2022-10-17T13:22:17.974Z,21.04
2022-10-17T13:24:44.497Z,21.21
2022-10-17T13:27:27.475Z,21.32
2022-10-17T13:29:56.245Z,21.35
2022-10-17T13:32:24.128Z,21.34
2022-10-17T13:35:11.037Z,21.34
2022-10-17T13:37:40.660Z,21.44
2022-10-17T13:40:40.892Z,21.47
2022-10-17T13:43:05.899Z,21.47
2022-10-17T13:45:34.872Z,21.45
2022-10-17T13:48:05.236Z,21.50
2022-10-17T13:50:44.532Z,21.57
2022-10-17T13:53:30.905Z,21.54
2022-10-17T13:56:28.019Z,21.52
2022-10-17T13:58:52.616Z,21.64
2022-10-17T14:01:21.222Z,21.77
2022-10-17T14:03:51.785Z,21.77
2022-10-17T14:06:26.154Z,21.81
2022-10-17T14:08:55.299Z,21.88
2022-10-17T14:11:32.518Z,21.93
2022-10-17T14:14:00.687Z,21.98
2022-10-17T14:16:40.610Z,21.93
2022-10-17T14:19:19.530Z,21.93
2022-10-17T14:21:48.964Z,21.95
2022-10-17T14:24:35.750Z,21.95
2022-10-17T14:27:02.390Z,21.93
2022-10-17T14:29:51.087Z,21.89
2022-10-17T14:32:17.981Z,21.90
2022-10-17T14:34:46.533Z,21.89
2022-10-17T14:37:34.385Z,21.81
2022-10-17T14:40:02.881Z,21.78
2022-10-17T14:42:29.358Z,21.77
2022-10-17T14:45:05.611Z,21.74
2022-10-17T14:47:43.109Z,21.75
2022-10-17T14:50:10.141Z,21.69
2022-10-17T14:52:38.788Z,21.69
2022-10-17T14:55:23.346Z,21.65
2022-10-17T14:57:49.988Z,21.61
2022-10-17T15:00:19.253Z,21.58
2022-10-17T15:02:46.630Z,21.60
2022-10-17T15:05:14.363Z,21.60
2022-10-17T15:07:41.757Z,21.60
2022-10-17T15:10:21.371Z,21.64
2022-10-17T15:12:56.234Z,21.55
2022-10-17T15:15:25.353Z,21.50
2022-10-17T15:17:51.765Z,21.52
2022-10-17T15:20:19.226Z,21.57
2022-10-17T15:22:45.701Z,21.52
2022-10-17T15:25:12.146Z,21.52
2022-10-17T15:27:38.535Z,21.47
2022-10-17T15:30:20.676Z,21.42
2022-10-17T15:32:49.057Z,21.35
2022-10-17T15:35:16.416Z,21.28
2022-10-17T15:37:43.401Z,21.30
2022-10-17T15:40:19.554Z,21.28
2022-10-17T15:42:45.960Z,21.30
2022-10-17T15:45:15.694Z,21.28
2022-10-17T15:47:43.984Z,21.21
2022-10-17T15:50:14.247Z,21.16
2022-10-17T15:52:41.423Z,21.07
2022-10-17T15:55:09.866Z,20.94
2022-10-17T15:57:40.323Z,20.92
2022-10-17T16:00:16.606Z,20.83
2022-10-17T16:02:43.729Z,20.79
2022-10-17T16:05:16.150Z,20.71
2022-10-17T16:07:46.880Z,20.63
2022-10-17T16:10:14.750Z,20.55
2022-10-17T16:12:43.958Z,20.52
2022-10-17T16:15:15.809Z,20.45
2022-10-17T16:17:43.824Z,20.42
2022-10-17T16:20:14.604Z,20.25
2022-10-17T16:22:44.120Z,19.90
2022-10-17T16:25:25.877Z,19.69
2022-10-17T16:27:54.737Z,19.31
2022-10-17T16:30:23.871Z,19.02
2022-10-17T16:32:50.623Z,19.01
2022-10-17T16:35:19.870Z,18.81
2022-10-17T16:37:47.451Z,18.61
2022-10-17T16:40:14.704Z,18.50
2022-10-17T16:42:41.170Z,18.44
2022-10-17T16:45:08.182Z,18.39
2022-10-17T16:47:34.547Z,18.33
2022-10-17T16:50:00.919Z,18.23
2022-10-17T16:52:27.494Z,18.17
2022-10-17T16:54:54.040Z,18.20
2022-10-17T16:57:20.495Z,18.17
2022-10-17T16:59:46.994Z,18.17
2022-10-17T17:02:16.344Z,18.06
2022-10-17T17:04:45.495Z,18.01
2022-10-17T17:07:11.881Z,17.98
2022-10-17T17:09:39.375Z,17.88
2022-10-17T17:12:06.491Z,17.89
2022-10-17T17:14:32.851Z,17.85
2022-10-17T17:16:59.435Z,17.78
2022-10-17T17:19:25.872Z,17.77
2022-10-17T17:21:52.337Z,17.74
2022-10-17T17:24:23.945Z,17.78
2022-10-17T17:26:52.775Z,17.71
2022-10-17T17:29:19.921Z,17.72
2022-10-17T17:31:46.442Z,17.67
2022-10-17T17:34:17.192Z,17.71
2022-10-17T17:36:44.700Z,17.74
2022-10-17T17:39:13.669Z,17.71
2022-10-17T17:41:41.392Z,17.69
2022-10-17T17:44:12.419Z,17.69
2022-10-17T17:46:43.493Z,17.71
2022-10-17T17:49:11.391Z,17.65
2022-10-17T17:51:38.158Z,17.64
2022-10-17T17:57:34.668Z,17.57
2022-10-17T18:00:01.044Z,17.65
2022-10-17T18:02:27.655Z,17.61
2022-10-17T18:04:54.155Z,17.64
2022-10-17T18:07:20.551Z,17.57
2022-10-17T18:09:47.987Z,17.50
2022-10-17T18:12:14.428Z,17.51
2022-10-17T18:14:40.880Z,17.48
2022-10-17T18:17:07.332Z,17.53
2022-10-17T18:19:33.777Z,17.51
2022-10-17T18:22:00.323Z,17.54
2022-10-17T18:24:26.692Z,17.59
2022-10-17T18:26:56.003Z,17.58
2022-10-17T18:29:22.384Z,17.67
2022-10-17T18:31:48.819Z,17.78
2022-10-17T18:34:15.223Z,17.78
2022-10-17T18:36:41.688Z,17.82
2022-10-17T18:39:08.118Z,17.96
2022-10-17T18:41:35.252Z,17.89
2022-10-17T18:44:05.321Z,17.79
2022-10-17T18:46:40.553Z,17.75
2022-10-17T18:49:11.713Z,17.79
2022-10-17T18:51:38.650Z,17.81
2022-10-17T18:54:05.122Z,17.96
2022-10-17T18:56:31.767Z,17.96
2022-10-17T18:58:58.245Z,17.94
2022-10-17T19:01:26.808Z,17.83
2022-10-17T19:03:56.165Z,17.82
2022-10-17T19:06:25.593Z,17.77
2022-10-17T19:08:52.112Z,17.74
2022-10-17T19:11:25.197Z,17.71
2022-10-17T19:13:52.540Z,17.69
2022-10-17T19:16:22.915Z,17.62
2022-10-17T19:19:23.080Z,17.54
2022-10-17T19:21:50.265Z,17.48
2022-10-17T19:24:19.529Z,17.48
2022-10-17T19:26:47.517Z,17.58
2022-10-17T19:29:15.558Z,17.51
2022-10-17T19:31:44.372Z,17.50
2022-10-17T19:34:12.144Z,17.55
2022-10-17T19:36:38.980Z,17.64
2022-10-17T19:39:10.495Z,17.55
2022-10-17T19:41:36.883Z,17.62
2022-10-17T19:44:03.444Z,17.72
2022-10-17T19:46:30.673Z,17.53
2022-10-17T19:48:58.858Z,17.68
2022-10-17T19:51:26.301Z,17.43
2022-10-17T19:53:54.810Z,17.23
2022-10-17T19:56:22.823Z,17.24
2022-10-17T19:58:50.306Z,17.10
2022-10-17T20:01:28.983Z,17.20
2022-10-17T20:03:55.810Z,17.13
2022-10-17T20:06:22.963Z,17.11
2022-10-17T20:08:49.743Z,17.10
2022-10-17T20:11:24.187Z,17.19
2022-10-17T20:13:50.835Z,17.10
2022-10-17T20:16:21.305Z,17.10
2022-10-17T20:18:49.564Z,17.14
2022-10-17T20:21:19.602Z,16.99
2022-10-17T20:23:47.801Z,17.02
2022-10-17T20:29:10.600Z,16.92
2022-10-17T20:31:37.363Z,16.85
2022-10-17T20:34:04.103Z,16.83
2022-10-17T20:36:30.623Z,16.90
2022-10-17T20:38:58.525Z,16.83
2022-10-17T20:41:26.315Z,16.76
2022-10-17T20:43:54.787Z,16.76
2022-10-17T20:46:36.446Z,17.02
2022-10-17T20:49:07.537Z,16.99
2022-10-17T20:51:35.112Z,16.90
2022-10-17T20:54:02.715Z,16.85
2022-10-17T20:56:31.247Z,16.76
2022-10-17T20:59:04.814Z,16.62
2022-10-17T21:01:32.829Z,16.69
2022-10-17T21:04:10.612Z,16.71
2022-10-17T21:06:42.593Z,16.73
2022-10-17T21:09:09.173Z,16.58
2022-10-17T21:11:35.714Z,16.58
2022-10-17T21:14:05.387Z,16.64
2022-10-17T21:16:34.047Z,16.55
2022-10-17T21:19:03.303Z,16.71
2022-10-17T21:21:33.674Z,16.47
2022-10-17T21:24:02.573Z,16.35
2022-10-17T21:26:31.527Z,16.31
2022-10-17T21:28:59.263Z,16.24
2022-10-17T21:31:27.690Z,16.27
2022-10-17T21:33:57.734Z,16.28
2022-10-17T21:36:25.689Z,16.25
2022-10-17T21:38:53.823Z,16.30
2022-10-17T21:41:23.936Z,16.30
2022-10-17T21:43:53.976Z,16.25
2022-10-17T21:46:21.066Z,16.16
2022-10-17T21:48:48.583Z,16.20
2022-10-17T21:51:17.429Z,16.21
2022-10-17T21:53:44.317Z,16.14
2022-10-17T21:56:14.103Z,16.17
2022-10-17T21:58:41.333Z,16.17
2022-10-17T22:01:22.763Z,16.14
2022-10-17T22:03:52.059Z,16.21
2022-10-17T22:09:17.567Z,16.24
2022-10-17T22:11:46.708Z,16.09
2022-10-17T22:14:17.295Z,16.06
2022-10-17T22:16:47.328Z,16.01
2022-10-17T22:19:18.242Z,15.99
2022-10-17T22:21:44.728Z,15.90
2022-10-17T22:24:13.256Z,15.93
2022-10-17T22:26:40.551Z,15.97
2022-10-17T22:29:11.427Z,16.00
2022-10-17T22:31:38.507Z,16.10
2022-10-17T22:34:05.889Z,16.14
2022-10-17T22:36:33.556Z,16.14
2022-10-17T22:39:00.181Z,16.09
2022-10-17T22:41:26.602Z,16.07
2022-10-17T22:43:52.986Z,16.22
2022-10-17T22:46:19.524Z,16.10
2022-10-17T22:48:45.981Z,16.01
2022-10-17T22:51:13.050Z,16.17
2022-10-17T22:53:39.549Z,16.34
2022-10-17T22:56:09.857Z,16.28
2022-10-17T22:58:36.830Z,16.20
2022-10-17T23:01:05.798Z,16.10
2022-10-17T23:03:33.454Z,16.07
2022-10-17T23:06:00.243Z,16.01
2022-10-17T23:08:27.415Z,16.03
2022-10-17T23:10:54.111Z,15.97
2022-10-17T23:13:22.073Z,16.07
2022-10-17T23:15:53.533Z,16.07
2022-10-17T23:18:20.784Z,15.96
2022-10-17T23:20:47.990Z,15.96
2022-10-17T23:23:14.540Z,16.00
2022-10-17T23:25:41.100Z,15.97
2022-10-17T23:28:08.642Z,15.89
2022-10-17T23:30:36.427Z,16.13
2022-10-17T23:33:03.389Z,15.77
2022-10-17T23:35:29.898Z,15.87
2022-10-17T23:37:56.309Z,15.76
2022-10-17T23:40:22.764Z,15.76
2022-10-17T23:42:49.511Z,15.85
2022-10-17T23:45:16.609Z,15.83
2022-10-17T23:47:43.198Z,15.76
2022-10-17T23:50:09.962Z,15.82
2022-10-17T23:52:36.573Z,15.76
2022-10-17T23:55:03.360Z,15.89
